Time;durP1;ratioP1;P1;durP2;ratioP2;P2;SDS_P1;SDS_P2;PMS_P1;PMS_P2;Temp;Humidity;BMP_temperature;BMP_pressure;BME280_temperature;BME280_humidity;BME280_pressure;Samples;Min_cycle;Max_cycle;Signal;HPM_P1;HPM_P2
2022/10/26 00:00:51;;;;;;;10.38;3.67;;;12.40;99.90;;;;;;4939337;29;20023;-76
2022/10/26 00:03:17;;;;;;;8.35;3.17;;;12.40;99.90;;;;;;4955630;29;20037;-76
2022/10/26 00:05:43;;;;;;;10.63;3.55;;;12.30;99.90;;;;;;4955651;28;20062;-76
2022/10/26 00:08:09;;;;;;;8.25;3.15;;;12.40;99.90;;;;;;4938606;29;20028;-76
2022/10/26 00:10:36;;;;;;;7.68;3.35;;;12.40;99.90;;;;;;4938364;29;20025;-76
2022/10/26 00:13:04;;;;;;;9.27;3.28;;;12.40;99.90;;;;;;4938164;29;20035;-76
2022/10/26 00:15:30;;;;;;;9.70;3.20;;;12.40;99.90;;;;;;4938817;29;20031;-76
2022/10/26 00:17:56;;;;;;;9.43;3.38;;;12.30;99.90;;;;;;4938841;29;20035;-76
2022/10/26 00:20:22;;;;;;;14.13;3.65;;;12.40;99.90;;;;;;4955353;29;20550;-76
2022/10/26 00:22:47;;;;;;;13.90;3.75;;;12.30;99.90;;;;;;4938149;29;20023;-76
2022/10/26 00:25:13;;;;;;;9.02;3.45;;;12.30;99.90;;;;;;4938106;29;20019;-76
2022/10/26 00:27:38;;;;;;;8.48;3.45;;;12.40;99.90;;;;;;4938127;29;20029;-76
2022/10/26 00:30:05;;;;;;;10.25;3.75;;;12.40;99.90;;;;;;4938021;29;20023;-76
2022/10/26 00:32:31;;;;;;;14.10;4.55;;;12.40;99.90;;;;;;4955253;28;20498;-76
2022/10/26 00:34:56;;;;;;;8.32;3.13;;;12.40;99.90;;;;;;4938037;29;20023;-76
2022/10/26 00:37:22;;;;;;;7.43;3.22;;;12.40;99.90;;;;;;4938021;29;20046;-76
2022/10/26 00:39:47;;;;;;;10.93;3.00;;;12.40;99.90;;;;;;4938285;29;20023;-76
2022/10/26 00:42:17;;;;;;;14.15;3.80;;;12.40;99.90;;;;;;4955359;29;20023;-76
2022/10/26 00:44:46;;;;;;;15.15;3.28;;;12.30;99.90;;;;;;4938025;28;20054;-76
2022/10/26 00:47:28;;;;;;;10.15;3.65;;;12.30;99.90;;;;;;4937870;29;20038;-76
2022/10/26 00:49:56;;;;;;;9.15;3.95;;;12.30;99.90;;;;;;4938010;29;20183;-76
2022/10/26 00:52:23;;;;;;;8.18;3.60;;;12.30;99.90;;;;;;4938790;29;20032;-76
2022/10/26 00:54:50;;;;;;;14.07;3.67;;;12.30;99.90;;;;;;4955415;28;20110;-76
2022/10/26 00:57:17;;;;;;;5.72;3.30;;;12.30;99.90;;;;;;4955344;28;20046;-76
2022/10/26 00:59:44;;;;;;;7.53;3.45;;;12.30;99.90;;;;;;4937875;29;20031;-76
2022/10/26 01:02:10;;;;;;;9.75;3.67;;;12.30;99.90;;;;;;4937703;29;20031;-76
2022/10/26 01:04:36;;;;;;;17.10;4.50;;;12.40;99.90;;;;;;4954996;28;20062;-76
2022/10/26 01:07:03;;;;;;;8.68;3.60;;;12.40;99.90;;;;;;4938364;29;20058;-76
2022/10/26 01:09:30;;;;;;;5.75;3.15;;;12.40;99.90;;;;;;4937683;29;20118;-76
2022/10/26 01:11:56;;;;;;;12.88;4.65;;;12.30;99.90;;;;;;4937797;29;20027;-76
2022/10/26 01:14:23;;;;;;;6.95;3.08;;;12.30;99.90;;;;;;4937757;29;20028;-76
2022/10/26 01:17:14;;;;;;;11.25;3.63;;;12.20;99.90;;;;;;4938017;28;20083;-76
2022/10/26 01:20:15;;;;;;;9.57;3.30;;;12.20;99.90;;;;;;4955007;29;20028;-76
2022/10/26 01:23:04;;;;;;;10.80;4.45;;;12.30;99.90;;;;;;4937586;29;20122;-76
2022/10/26 01:25:51;;;;;;;10.10;3.55;;;12.20;99.90;;;;;;4937459;29;20391;-76
2022/10/26 01:28:49;;;;;;;8.02;3.38;;;12.20;99.90;;;;;;4938004;29;20035;-76
2022/10/26 01:31:19;;;;;;;8.32;3.90;;;12.30;99.90;;;;;;4955076;29;20098;-76
2022/10/26 01:33:51;;;;;;;11.68;4.18;;;12.40;99.90;;;;;;4937662;29;20034;-76
2022/10/26 01:36:35;;;;;;;7.45;3.97;;;12.40;99.90;;;;;;4938290;29;20031;-76
2022/10/26 01:39:13;;;;;;;10.70;4.38;;;12.30;99.90;;;;;;4938307;29;20027;-76
2022/10/26 01:41:43;;;;;;;13.05;4.15;;;12.30;99.90;;;;;;4937350;29;20070;-76
2022/10/26 01:44:23;;;;;;;11.63;3.78;;;12.30;99.90;;;;;;4937368;29;20118;-76
2022/10/26 01:46:52;;;;;;;11.38;4.70;;;12.20;99.90;;;;;;4940234;28;20046;-76
2022/10/26 01:49:21;;;;;;;13.00;4.65;;;12.30;99.90;;;;;;4940708;29;20027;-76
2022/10/26 01:51:48;;;;;;;9.40;4.47;;;12.40;99.90;;;;;;4940724;29;20513;-76
2022/10/26 01:54:14;;;;;;;6.88;4.00;;;12.40;99.90;;;;;;4941550;29;20054;-76
2022/10/26 01:56:43;;;;;;;12.90;4.53;;;12.50;99.90;;;;;;4940448;28;20422;-76
2022/10/26 01:59:25;;;;;;;11.07;4.80;;;12.40;99.90;;;;;;4958155;28;20038;-76
2022/10/26 02:02:06;;;;;;;12.07;4.55;;;12.10;99.90;;;;;;4940452;29;20062;-76
2022/10/26 02:05:03;;;;;;;8.35;4.05;;;12.00;99.90;;;;;;4958089;29;20490;-76
2022/10/26 02:07:38;;;;;;;12.65;4.55;;;12.00;99.90;;;;;;4940944;29;20026;-76
2022/10/26 02:10:14;;;;;;;10.95;4.70;;;12.10;99.90;;;;;;4940383;29;20054;-76
2022/10/26 02:13:09;;;;;;;7.85;4.20;;;12.10;99.90;;;;;;4941281;29;20024;-76
2022/10/26 02:15:37;;;;;;;11.43;4.30;;;12.10;99.90;;;;;;4940307;29;20508;-76
2022/10/26 02:18:07;;;;;;;15.73;4.32;;;12.20;99.90;;;;;;4957425;28;20035;-76
2022/10/26 02:20:38;;;;;;;9.15;3.97;;;12.20;99.90;;;;;;4957427;28;20039;-76
2022/10/26 02:23:06;;;;;;;13.13;3.63;;;12.30;99.90;;;;;;4940621;29;20028;-76
2022/10/26 02:25:36;;;;;;;10.05;5.10;;;12.30;99.90;;;;;;4940980;29;20132;-76
2022/10/26 02:28:06;;;;;;;11.57;4.60;;;12.30;99.90;;;;;;4940552;29;20027;-76
2022/10/26 02:30:34;;;;;;;10.13;4.63;;;12.20;99.90;;;;;;4957294;29;20515;-76
2022/10/26 02:33:03;;;;;;;8.52;4.30;;;12.20;99.90;;;;;;4957537;29;20055;-76
2022/10/26 02:35:32;;;;;;;15.50;3.83;;;12.20;99.90;;;;;;4939944;29;20114;-76
2022/10/26 02:38:00;;;;;;;8.38;4.88;;;12.10;99.90;;;;;;4958216;28;20027;-76
2022/10/26 02:40:27;;;;;;;11.35;4.15;;;12.10;99.90;;;;;;4941739;29;20031;-76
2022/10/26 02:42:56;;;;;;;11.48;5.03;;;12.10;99.90;;;;;;4939830;29;20034;-76
2022/10/26 02:45:30;;;;;;;7.78;4.47;;;12.10;99.90;;;;;;4940119;29;20098;-76
2022/10/26 02:47:56;;;;;;;11.45;4.30;;;12.10;99.90;;;;;;4939640;29;20033;-76
2022/10/26 02:50:30;;;;;;;7.53;4.18;;;12.10;99.90;;;;;;4956993;29;20030;-76
2022/10/26 02:53:05;;;;;;;12.77;4.97;;;12.10;99.90;;;;;;4939770;29;20117;-76
2022/10/26 02:55:39;;;;;;;17.50;4.75;;;12.10;99.90;;;;;;4939584;29;20036;-76
2022/10/26 02:58:10;;;;;;;10.07;3.85;;;12.00;99.90;;;;;;4939303;29;20039;-74
2022/10/26 03:00:36;;;;;;;15.25;4.78;;;12.10;99.90;;;;;;4957124;29;20035;-73
2022/10/26 03:03:03;;;;;;;7.22;4.03;;;12.00;99.90;;;;;;4939423;29;20035;-73
2022/10/26 03:05:31;;;;;;;12.65;4.43;;;12.00;99.90;;;;;;4957137;29;20033;-74
2022/10/26 03:07:57;;;;;;;10.65;4.88;;;12.00;99.90;;;;;;4939395;29;20054;-74
2022/10/26 03:10:23;;;;;;;11.18;4.10;;;12.10;99.90;;;;;;4939284;29;20030;-74
2022/10/26 03:12:49;;;;;;;10.93;4.32;;;12.10;99.90;;;;;;4939274;29;20148;-73
2022/10/26 03:15:15;;;;;;;9.68;4.43;;;12.10;99.90;;;;;;4939251;29;20027;-73
2022/10/26 03:17:41;;;;;;;12.65;3.80;;;12.20;99.90;;;;;;4939022;29;20035;-73
2022/10/26 03:20:07;;;;;;;13.85;4.50;;;12.20;99.90;;;;;;4939150;29;20027;-73
2022/10/26 03:22:33;;;;;;;14.63;4.50;;;12.30;99.90;;;;;;4938896;29;20031;-73
2022/10/26 03:24:58;;;;;;;9.75;5.00;;;12.30;99.90;;;;;;4956296;29;20039;-74
2022/10/26 03:27:25;;;;;;;7.47;4.10;;;12.30;99.90;;;;;;4938903;29;20122;-73
2022/10/26 03:29:51;;;;;;;10.95;4.13;;;12.30;99.90;;;;;;4939024;29;20023;-73
2022/10/26 03:32:16;;;;;;;9.93;4.60;;;12.40;99.90;;;;;;4938899;29;20025;-73
2022/10/26 03:34:42;;;;;;;10.57;4.70;;;12.40;99.90;;;;;;4938907;29;20435;-73
2022/10/26 03:37:07;;;;;;;9.95;4.18;;;12.40;99.90;;;;;;4939169;29;20019;-73
2022/10/26 03:39:33;;;;;;;10.65;4.72;;;12.40;99.90;;;;;;4939296;29;20024;-74
2022/10/26 03:41:58;;;;;;;10.20;4.13;;;12.40;99.90;;;;;;4939463;29;20058;-73
2022/10/26 03:44:24;;;;;;;12.27;4.43;;;12.50;99.90;;;;;;4938615;29;20043;-73
2022/10/26 03:46:49;;;;;;;10.25;3.95;;;12.40;99.90;;;;;;4955889;28;20058;-73
2022/10/26 03:49:15;;;;;;;9.82;4.30;;;12.50;99.90;;;;;;4938705;29;20020;-73
2022/10/26 03:51:40;;;;;;;12.00;4.10;;;12.50;99.90;;;;;;4956053;29;20097;-73
2022/10/26 03:54:06;;;;;;;10.60;4.68;;;12.40;99.90;;;;;;4938525;29;20031;-73
2022/10/26 03:56:32;;;;;;;14.55;4.85;;;12.40;99.90;;;;;;4938397;28;20038;-74
2022/10/26 03:58:57;;;;;;;12.75;5.47;;;12.30;99.90;;;;;;4938428;29;20065;-74
2022/10/26 04:01:23;;;;;;;11.38;4.65;;;12.20;99.90;;;;;;4938387;29;20078;-73
2022/10/26 04:03:48;;;;;;;11.65;5.50;;;12.10;99.90;;;;;;4938399;29;20023;-73
2022/10/26 04:06:14;;;;;;;11.70;5.53;;;12.00;99.90;;;;;;4939396;29;20023;-73
2022/10/26 04:08:39;;;;;;;10.43;5.35;;;11.90;99.90;;;;;;4937916;29;20030;-73
2022/10/26 04:11:05;;;;;;;7.28;4.53;;;11.90;99.90;;;;;;4938586;29;20027;-74
2022/10/26 04:13:31;;;;;;;8.75;5.10;;;11.80;99.90;;;;;;4938587;29;20031;-74
2022/10/26 04:15:57;;;;;;;9.90;4.35;;;11.80;99.90;;;;;;4938229;29;20030;-73
2022/10/26 04:18:22;;;;;;;10.15;4.47;;;11.80;99.90;;;;;;4938155;29;20062;-73
2022/10/26 04:20:48;;;;;;;10.32;4.57;;;11.90;99.90;;;;;;4955274;29;20031;-73
2022/10/26 04:23:15;;;;;;;12.43;4.20;;;12.10;99.90;;;;;;4955544;29;20030;-73
2022/10/26 04:25:42;;;;;;;23.05;5.13;;;12.10;99.90;;;;;;4939002;29;20027;-73
2022/10/26 04:28:09;;;;;;;10.43;4.35;;;12.00;99.90;;;;;;4937958;29;20023;-74
2022/10/26 04:30:35;;;;;;;12.48;5.85;;;12.00;99.90;;;;;;4938059;29;20051;-74
2022/10/26 04:33:01;;;;;;;13.35;5.03;;;12.10;99.90;;;;;;4938288;29;20114;-73
2022/10/26 04:35:27;;;;;;;8.38;4.43;;;12.20;99.90;;;;;;4937998;29;20082;-73
2022/10/26 04:38:01;;;;;;;15.70;5.18;;;12.10;99.90;;;;;;4937851;29;20031;-73
2022/10/26 04:40:28;;;;;;;13.05;5.18;;;12.00;99.90;;;;;;4938839;29;20031;-73
2022/10/26 04:42:54;;;;;;;12.43;4.82;;;12.00;99.90;;;;;;4938022;29;20102;-73
2022/10/26 04:45:19;;;;;;;8.70;4.63;;;12.00;99.90;;;;;;4938259;29;20023;-73
2022/10/26 04:47:45;;;;;;;13.57;5.70;;;12.10;99.90;;;;;;4937895;29;20023;-74
2022/10/26 04:50:12;;;;;;;11.68;5.07;;;12.10;99.90;;;;;;4955168;29;20090;-74
2022/10/26 04:52:39;;;;;;;9.10;4.05;;;12.10;99.90;;;;;;4938797;29;20027;-74
2022/10/26 04:55:05;;;;;;;7.40;4.13;;;12.20;99.90;;;;;;4955044;29;20031;-74
2022/10/26 04:57:35;;;;;;;8.30;4.45;;;12.30;99.90;;;;;;4954874;28;20031;-74
2022/10/26 05:00:02;;;;;;;9.38;4.85;;;12.40;99.90;;;;;;4937807;29;20030;-74
2022/10/26 05:02:27;;;;;;;8.57;4.05;;;12.40;99.90;;;;;;4937707;29;20027;-74
2022/10/26 05:04:53;;;;;;;10.63;4.85;;;12.20;99.90;;;;;;4954942;29;20042;-73
2022/10/26 05:07:18;;;;;;;10.00;4.53;;;12.30;99.90;;;;;;4954893;28;20019;-73
2022/10/26 05:09:45;;;;;;;9.10;4.75;;;12.40;99.90;;;;;;4938291;29;20020;-73
2022/10/26 05:12:11;;;;;;;11.95;4.47;;;12.40;99.90;;;;;;4937998;29;20169;-73
2022/10/26 05:14:36;;;;;;;8.95;4.57;;;12.50;99.90;;;;;;4937680;29;20039;-73
2022/10/26 05:17:02;;;;;;;12.88;5.47;;;12.50;99.90;;;;;;4937832;29;20027;-73
2022/10/26 05:19:28;;;;;;;12.43;4.78;;;12.50;99.90;;;;;;4937980;29;20033;-73
2022/10/26 05:21:53;;;;;;;11.98;5.60;;;12.40;99.90;;;;;;4940698;29;20023;-73
2022/10/26 05:24:19;;;;;;;12.05;4.35;;;12.30;99.90;;;;;;4958343;29;20032;-74
2022/10/26 05:26:44;;;;;;;9.27;4.53;;;12.20;99.90;;;;;;4941104;28;20020;-74
2022/10/26 05:29:10;;;;;;;10.18;4.60;;;12.30;99.90;;;;;;4941328;29;20024;-73
2022/10/26 05:31:35;;;;;;;10.90;4.88;;;12.40;99.90;;;;;;4942028;29;20117;-73
2022/10/26 05:34:01;;;;;;;10.95;4.20;;;12.40;99.90;;;;;;4941333;29;20149;-73
2022/10/26 05:36:26;;;;;;;17.25;4.80;;;12.30;99.90;;;;;;4941151;29;20027;-73
2022/10/26 05:38:52;;;;;;;11.95;4.82;;;12.20;99.90;;;;;;4940909;29;20597;-73
2022/10/26 05:41:18;;;;;;;14.52;4.82;;;12.10;99.90;;;;;;4940978;29;20075;-73
2022/10/26 05:43:46;;;;;;;8.65;4.45;;;12.10;99.90;;;;;;4958026;29;20031;-73
2022/10/26 05:46:12;;;;;;;9.02;4.97;;;12.20;99.90;;;;;;4941152;29;20479;-73
2022/10/26 05:48:37;;;;;;;10.70;4.72;;;12.30;99.90;;;;;;4940881;29;20019;-74
2022/10/26 05:51:03;;;;;;;11.57;5.00;;;12.30;99.90;;;;;;4957864;29;20031;-74
2022/10/26 05:53:28;;;;;;;7.80;4.10;;;12.20;99.90;;;;;;4958214;29;20035;-73
2022/10/26 05:55:56;;;;;;;17.67;4.80;;;12.30;99.90;;;;;;4940658;29;20073;-73
2022/10/26 05:58:21;;;;;;;10.32;4.75;;;12.30;99.90;;;;;;4957747;28;20032;-74
2022/10/26 06:01:10;;;;;;;9.35;5.88;;;12.30;99.90;;;;;;4940621;29;20028;-73
2022/10/26 06:03:35;;;;;;;16.50;4.55;;;12.20;99.90;;;;;;4940558;29;20031;-73
2022/10/26 06:06:01;;;;;;;12.60;4.65;;;12.30;99.90;;;;;;4957759;29;20039;-74
2022/10/26 06:08:28;;;;;;;13.00;4.53;;;12.30;99.90;;;;;;4940456;29;20114;-74
2022/10/26 06:10:55;;;;;;;14.52;4.43;;;12.40;99.90;;;;;;4958287;29;20035;-74
2022/10/26 06:13:21;;;;;;;8.90;4.60;;;12.40;99.90;;;;;;4957777;29;20034;-73
2022/10/26 06:16:06;;;;;;;8.55;4.75;;;12.40;99.90;;;;;;4940586;29;20035;-73
2022/10/26 06:19:00;;;;;;;10.52;4.70;;;12.40;99.90;;;;;;4957538;28;20019;-73
2022/10/26 06:21:34;;;;;;;9.88;4.57;;;12.40;99.90;;;;;;4940305;29;20114;-73
2022/10/26 06:24:53;;;;;;;10.32;5.28;;;12.40;99.90;;;;;;4941131;29;20134;-73
2022/10/26 06:27:42;;;;;;;8.02;3.97;;;12.40;99.90;;;;;;4908741;29;20031;-73
2022/10/26 06:30:10;;;;;;;12.05;4.95;;;12.30;99.90;;;;;;4926930;29;20031;-73
2022/10/26 06:32:38;;;;;;;11.63;5.00;;;12.30;99.90;;;;;;4940536;29;20077;-73
2022/10/26 06:35:39;;;;;;;14.70;5.20;;;12.40;99.90;;;;;;4957503;29;20027;-73
2022/10/26 06:38:10;;;;;;;9.27;4.53;;;12.30;99.90;;;;;;4861535;29;20115;-73
2022/10/26 06:40:39;;;;;;;13.50;5.82;;;12.40;99.90;;;;;;4924644;29;20101;-73
2022/10/26 06:43:13;;;;;;;13.02;5.18;;;12.30;99.90;;;;;;4939728;29;20497;-73
2022/10/26 06:45:46;;;;;;;10.90;4.75;;;12.40;99.90;;;;;;4956843;29;20023;-74
2022/10/26 06:48:19;;;;;;;11.05;5.00;;;12.30;99.90;;;;;;4940541;29;20109;-74
2022/10/26 06:50:51;;;;;;;11.35;6.82;;;12.30;99.90;;;;;;4956911;28;20037;-74
2022/10/26 06:53:25;;;;;;;13.25;8.38;;;12.40;99.90;;;;;;4957166;29;20061;-74
2022/10/26 06:55:51;;;;;;;17.23;8.55;;;12.40;99.90;;;;;;4939534;29;20031;-74
2022/10/26 06:58:19;;;;;;;15.10;8.45;;;12.40;99.90;;;;;;4939373;29;20082;-74
2022/10/26 07:00:47;;;;;;;31.25;7.88;;;12.40;99.90;;;;;;4939843;29;20054;-73
2022/10/26 07:03:13;;;;;;;16.33;6.38;;;12.30;99.90;;;;;;4956743;28;20118;-73
2022/10/26 07:05:39;;;;;;;17.10;6.45;;;12.40;99.90;;;;;;4957050;29;20158;-73
2022/10/26 07:08:05;;;;;;;16.52;6.03;;;12.40;99.90;;;;;;4956811;28;20032;-73
2022/10/26 07:10:31;;;;;;;11.10;5.22;;;12.50;99.90;;;;;;4939768;29;20031;-75
2022/10/26 07:12:56;;;;;;;13.85;5.13;;;12.50;99.90;;;;;;4939236;29;20031;-75
2022/10/26 07:15:22;;;;;;;10.13;3.92;;;12.60;99.90;;;;;;4939140;29;20078;-75
2022/10/26 07:17:48;;;;;;;19.02;6.07;;;12.60;99.90;;;;;;4939171;29;20427;-75
2022/10/26 07:20:16;;;;;;;6.63;4.57;;;12.70;99.90;;;;;;4939450;29;20039;-77
2022/10/26 07:22:41;;;;;;;8.32;4.88;;;12.70;99.90;;;;;;4939020;29;20168;-75
2022/10/26 07:25:07;;;;;;;10.50;5.68;;;12.80;99.90;;;;;;4939492;29;20019;-74
2022/10/26 07:27:33;;;;;;;9.93;4.45;;;12.80;99.90;;;;;;4939195;29;20058;-76
2022/10/26 07:29:59;;;;;;;8.80;4.75;;;12.70;99.90;;;;;;4939249;29;20019;-76
2022/10/26 07:32:24;;;;;;;9.48;4.45;;;12.70;99.90;;;;;;4938949;29;20024;-75
2022/10/26 07:34:50;;;;;;;10.77;4.18;;;12.70;99.90;;;;;;4940004;29;20023;-75
2022/10/26 07:37:15;;;;;;;10.10;4.25;;;12.70;99.90;;;;;;4955966;28;20023;-75
2022/10/26 07:39:40;;;;;;;13.07;4.30;;;12.80;99.90;;;;;;4938736;29;20027;-75
2022/10/26 07:42:06;;;;;;;12.27;4.20;;;12.70;99.90;;;;;;4955983;29;20027;-75
2022/10/26 07:44:32;;;;;;;7.55;4.43;;;12.60;99.90;;;;;;4938357;29;20122;-75
2022/10/26 07:46:57;;;;;;;14.38;5.13;;;12.50;99.90;;;;;;4956121;28;20023;-77
2022/10/26 07:49:23;;;;;;;13.82;4.93;;;12.50;99.90;;;;;;4939080;29;20035;-76
2022/10/26 07:51:48;;;;;;;9.57;4.38;;;12.60;99.90;;;;;;4939113;29;20020;-77
2022/10/26 07:54:14;;;;;;;10.02;4.25;;;12.70;99.90;;;;;;4938623;29;20038;-76
2022/10/26 07:56:39;;;;;;;14.88;4.43;;;12.80;99.90;;;;;;4939104;28;20094;-77
2022/10/26 07:59:05;;;;;;;14.65;4.13;;;12.90;99.90;;;;;;4955968;29;20035;-75
2022/10/26 08:01:30;;;;;;;6.97;3.90;;;13.00;99.90;;;;;;4938486;29;20027;-75
2022/10/26 08:03:56;;;;;;;12.20;5.05;;;12.90;99.90;;;;;;4955508;29;20035;-74
2022/10/26 08:06:22;;;;;;;12.50;4.43;;;13.00;99.90;;;;;;4938420;29;20042;-76
2022/10/26 08:08:49;;;;;;;9.13;4.38;;;13.00;99.90;;;;;;4955547;28;20031;-75
2022/10/26 08:11:15;;;;;;;9.43;4.55;;;13.00;99.90;;;;;;4938558;29;20024;-75
2022/10/26 08:13:41;;;;;;;14.35;3.88;;;13.10;99.90;;;;;;4938320;29;20062;-75
2022/10/26 08:16:07;;;;;;;7.38;4.20;;;13.20;99.90;;;;;;4938207;29;20059;-75
2022/10/26 08:18:33;;;;;;;12.05;4.10;;;13.40;99.90;;;;;;4938096;29;20035;-75
2022/10/26 08:21:05;;;;;;;8.77;3.38;;;13.40;99.90;;;;;;4938108;29;20034;-75
2022/10/26 08:23:31;;;;;;;8.57;4.45;;;13.40;99.90;;;;;;4955590;29;20031;-75
2022/10/26 08:26:01;;;;;;;7.25;3.60;;;13.30;99.90;;;;;;4938149;29;20019;-75
2022/10/26 08:28:28;;;;;;;18.42;3.92;;;13.30;99.90;;;;;;4938061;29;20027;-75
2022/10/26 08:30:54;;;;;;;8.27;3.67;;;13.40;99.90;;;;;;4953412;28;20027;-75
2022/10/26 08:33:20;;;;;;;6.93;3.55;;;13.50;99.90;;;;;;4936831;29;20031;-75
2022/10/26 08:35:46;;;;;;;11.38;3.72;;;13.60;99.90;;;;;;4954277;29;20035;-75
2022/10/26 08:38:11;;;;;;;8.75;3.30;;;13.60;99.90;;;;;;4936952;29;20090;-75
2022/10/26 08:40:41;;;;;;;6.15;3.58;;;13.70;99.90;;;;;;4937163;29;20090;-75
2022/10/26 08:43:19;;;;;;;7.40;2.50;;;13.80;99.90;;;;;;4937219;29;20031;-75
2022/10/26 08:45:58;;;;;;;7.50;3.33;;;14.00;99.90;;;;;;4937898;29;20023;-75
2022/10/26 08:48:31;;;;;;;6.45;2.97;;;14.00;99.90;;;;;;4938987;29;20035;-75
2022/10/26 08:51:01;;;;;;;11.50;2.90;;;14.00;99.90;;;;;;4939111;29;20060;-75
2022/10/26 08:53:46;;;;;;;6.30;2.28;;;14.00;99.90;;;;;;4938298;29;20027;-75
2022/10/26 08:56:27;;;;;;;8.32;2.70;;;14.20;99.90;;;;;;4959066;28;20047;-75
2022/10/26 08:59:01;;;;;;;12.00;3.15;;;14.40;99.90;;;;;;4949363;23;20111;-75
2022/10/26 09:01:30;;;;;;;9.25;3.00;;;14.50;99.90;;;;;;4958889;28;20038;-75
2022/10/26 09:03:56;;;;;;;9.10;3.33;;;14.60;99.90;;;;;;4941724;28;20031;-76
2022/10/26 09:06:40;;;;;;;5.75;1.77;;;14.70;99.90;;;;;;4959415;29;20027;-76
2022/10/26 09:09:16;;;;;;;6.43;1.90;;;15.00;99.90;;;;;;4941545;29;20031;-75
2022/10/26 09:12:09;;;;;;;3.90;2.17;;;15.30;99.90;;;;;;4942509;28;20031;-75
2022/10/26 09:14:59;;;;;;;3.65;1.67;;;15.20;99.90;;;;;;4942339;29;20032;-75
2022/10/26 09:17:39;;;;;;;4.38;1.58;;;15.10;99.90;;;;;;4941523;29;20058;-75
2022/10/26 09:20:32;;;;;;;6.05;2.40;;;15.10;99.90;;;;;;4958860;29;20027;-75
2022/10/26 09:23:18;;;;;;;4.28;1.77;;;15.10;99.90;;;;;;4941845;29;20027;-75
2022/10/26 09:25:51;;;;;;;3.65;1.92;;;15.20;99.90;;;;;;4941306;29;20027;-75
2022/10/26 09:28:17;;;;;;;3.75;1.67;;;15.20;99.90;;;;;;4958407;28;20020;-75
2022/10/26 09:30:45;;;;;;;8.90;1.98;;;15.10;99.90;;;;;;4941113;29;20023;-75
2022/10/26 09:33:17;;;;;;;6.72;2.20;;;15.20;99.90;;;;;;4941272;29;20046;-77
2022/10/26 09:35:50;;;;;;;5.10;2.08;;;15.30;99.90;;;;;;4941419;28;20033;-76
2022/10/26 09:38:30;;;;;;;7.03;2.65;;;15.30;99.90;;;;;;4958132;28;20023;-75
2022/10/26 09:41:17;;;;;;;4.30;1.67;;;15.20;99.90;;;;;;4958164;29;20042;-76
2022/10/26 09:43:49;;;;;;;8.10;2.85;;;15.20;99.90;;;;;;4958086;29;20032;-76
2022/10/26 09:46:23;;;;;;;5.80;2.05;;;15.40;99.90;;;;;;4958158;29;20024;-75
2022/10/26 09:49:00;;;;;;;6.22;2.38;;;15.70;99.90;;;;;;4941704;28;20023;-75
2022/10/26 09:51:26;;;;;;;3.80;2.00;;;16.00;99.90;;;;;;4958148;29;20020;-75
2022/10/26 09:53:54;;;;;;;8.82;2.10;;;16.20;99.90;;;;;;4940822;29;20117;-75
2022/10/26 09:56:21;;;;;;;4.47;2.15;;;16.20;99.90;;;;;;4940922;28;20023;-75
2022/10/26 09:58:58;;;;;;;6.80;2.42;;;16.30;99.90;;;;;;4957779;28;20038;-76
2022/10/26 10:01:32;;;;;;;7.93;2.55;;;16.50;99.90;;;;;;4940732;28;20104;-76
2022/10/26 10:04:16;;;;;;;6.43;2.10;;;16.60;99.90;;;;;;4957996;29;20035;-75
2022/10/26 10:06:43;;;;;;;8.88;2.47;;;16.60;99.90;;;;;;4940470;28;20107;-75
2022/10/26 10:09:10;;;;;;;5.70;2.13;;;16.70;99.90;;;;;;4940884;29;20027;-75
2022/10/26 10:11:37;;;;;;;7.10;2.30;;;16.90;99.90;;;;;;4940837;29;20052;-75
2022/10/26 10:14:07;;;;;;;6.70;2.58;;;17.10;99.90;;;;;;4957709;29;20023;-76
2022/10/26 10:16:33;;;;;;;3.92;2.33;;;17.20;99.90;;;;;;4940733;28;20038;-76
2022/10/26 10:19:00;;;;;;;9.07;2.70;;;17.30;99.90;;;;;;4940258;29;20039;-75
2022/10/26 10:21:47;;;;;;;6.25;2.15;;;17.10;99.90;;;;;;4957625;29;20024;-76
2022/10/26 10:24:30;;;;;;;11.38;3.20;;;17.20;99.90;;;;;;4940235;29;20038;-76
2022/10/26 10:27:11;;;;;;;5.20;2.45;;;17.20;99.90;;;;;;4940197;28;20024;-75
2022/10/26 10:29:51;;;;;;;4.15;2.25;;;17.40;99.90;;;;;;4940232;29;20027;-75
2022/10/26 10:32:25;;;;;;;4.40;2.50;;;17.70;99.90;;;;;;4940180;28;20111;-75
2022/10/26 10:34:55;;;;;;;5.07;2.53;;;18.00;99.90;;;;;;4957363;29;20031;-75
2022/10/26 10:37:45;;;;;;;5.30;3.00;;;18.20;99.90;;;;;;4957174;28;20098;-75
2022/10/26 10:40:19;;;;;;;4.03;2.60;;;18.10;99.90;;;;;;4957256;29;20055;-76
2022/10/26 10:42:46;;;;;;;10.60;2.90;;;17.80;99.90;;;;;;4957091;29;20027;-75
2022/10/26 10:45:23;;;;;;;8.90;3.33;;;17.60;99.90;;;;;;4939887;29;20035;-76
2022/10/26 10:48:02;;;;;;;10.68;3.00;;;17.10;99.90;;;;;;4940176;28;20078;-76
2022/10/26 10:50:28;;;;;;;5.05;2.60;;;17.20;99.90;;;;;;4940091;28;20122;-76
2022/10/26 10:53:13;;;;;;;8.75;2.70;;;17.70;99.90;;;;;;4957006;29;20035;-76
2022/10/26 10:55:44;;;;;;;8.85;2.20;;;17.80;99.90;;;;;;4940288;29;20075;-76
2022/10/26 10:58:40;;;;;;;9.32;3.50;;;17.90;99.90;;;;;;4940254;29;20035;-76
2022/10/26 11:01:13;;;;;;;8.70;3.35;;;17.90;99.90;;;;;;4934997;29;20031;-76
2022/10/26 11:04:10;;;;;;;11.00;2.95;;;18.20;99.90;;;;;;4939700;28;20031;-76
2022/10/26 11:06:37;;;;;;;9.10;2.83;;;18.30;99.90;;;;;;4956683;29;20020;-76
2022/10/26 11:09:11;;;;;;;6.57;2.95;;;18.40;99.90;;;;;;4939292;29;20102;-76
2022/10/26 11:11:56;;;;;;;6.45;2.63;;;18.30;99.90;;;;;;4940324;29;20027;-76
2022/10/26 11:14:31;;;;;;;6.53;2.88;;;17.90;99.90;;;;;;4939726;29;20039;-76
2022/10/26 11:17:21;;;;;;;7.40;2.60;;;17.90;99.90;;;;;;4956477;28;20039;-75
2022/10/26 11:19:54;;;;;;;8.70;2.80;;;17.70;99.90;;;;;;4938734;29;20100;-76
2022/10/26 11:22:32;;;;;;;8.75;3.00;;;17.60;99.90;;;;;;4956484;29;20106;-76
2022/10/26 11:25:00;;;;;;;7.38;2.83;;;17.80;99.90;;;;;;4956688;29;20063;-76
2022/10/26 11:27:41;;;;;;;8.20;2.78;;;17.90;99.90;;;;;;4939768;28;20030;-76
2022/10/26 11:30:18;;;;;;;8.85;3.22;;;17.80;99.90;;;;;;4939197;28;20030;-76
2022/10/26 11:32:47;;;;;;;10.82;2.95;;;17.70;99.90;;;;;;4939448;28;20054;-76
2022/10/26 11:35:36;;;;;;;6.97;3.28;;;17.60;99.90;;;;;;4939000;29;20027;-76
2022/10/26 11:38:12;;;;;;;6.85;3.22;;;17.60;99.90;;;;;;4938875;29;20030;-75
2022/10/26 11:40:53;;;;;;;8.27;3.25;;;17.70;99.90;;;;;;5070769;28;20424;-75
2022/10/26 11:43:23;;;;;;;5.30;3.03;;;17.40;99.90;;;;;;5070773;28;20025;-75
2022/10/26 11:45:59;;;;;;;5.32;2.90;;;17.30;99.90;;;;;;5069414;28;20025;-75
2022/10/26 11:48:40;;;;;;;9.30;3.40;;;17.20;99.90;;;;;;5070604;28;20017;-75
2022/10/26 11:51:19;;;;;;;9.15;4.13;;;17.10;99.90;;;;;;5070202;28;20021;-75
2022/10/26 11:53:47;;;;;;;5.47;3.25;;;17.10;99.90;;;;;;5077194;22;20106;-70
2022/10/26 11:56:43;;;;;;;8.02;3.35;;;17.30;99.90;;;;;;5049355;28;20021;-70
2022/10/26 11:59:24;;;;;;;8.32;3.28;;;17.50;99.90;;;;;;5049810;28;20025;-69
2022/10/26 12:01:58;;;;;;;7.88;3.25;;;17.70;99.90;;;;;;5049190;28;20033;-69
2022/10/26 12:04:29;;;;;;;8.60;2.75;;;18.00;99.90;;;;;;5050616;28;20021;-70
2022/10/26 12:06:58;;;;;;;13.38;3.13;;;18.30;99.90;;;;;;5049447;28;20048;-70
2022/10/26 12:09:30;;;;;;;3.67;1.80;;;18.50;99.90;;;;;;5049265;28;20029;-70
2022/10/26 12:12:19;;;;;;;8.85;3.05;;;18.70;99.90;;;;;;5049450;28;20025;-71
2022/10/26 12:14:54;;;;;;;6.13;2.55;;;19.10;99.90;;;;;;5049608;28;20079;-69
2022/10/26 12:17:33;;;;;;;8.27;2.78;;;19.10;99.90;;;;;;5050231;28;20030;-69
2022/10/26 12:20:17;;;;;;;10.35;2.72;;;19.30;99.90;;;;;;5053944;28;20051;-71
2022/10/26 12:22:43;;;;;;;4.28;2.20;;;19.70;99.90;;;;;;5053960;28;20055;-72
2022/10/26 12:25:12;;;;;;;9.50;2.20;;;20.00;99.90;;;;;;5050639;28;20075;-70
2022/10/26 12:27:37;;;;;;;6.13;2.20;;;20.10;99.90;;;;;;5049125;28;20025;-69
2022/10/26 12:30:14;;;;;;;8.73;2.40;;;21.10;99.90;;;;;;5049351;28;20031;-69
2022/10/26 12:32:40;;;;;;;7.35;2.28;;;21.50;99.90;;;;;;5049317;28;20025;-70
2022/10/26 12:35:36;;;;;;;6.05;2.30;;;21.90;99.90;;;;;;5049133;28;20060;-72
2022/10/26 12:38:24;;;;;;;5.78;1.75;;;21.90;99.90;;;;;;5051095;28;20484;-71
2022/10/26 12:41:05;;;;;;;5.80;1.65;;;22.20;99.90;;;;;;5048893;28;20025;-71
2022/10/26 12:43:32;;;;;;;3.47;2.47;;;22.00;99.90;;;;;;5048404;28;20025;-71
2022/10/26 12:46:13;;;;;;;9.23;2.30;;;22.50;99.90;;;;;;5049007;28;20116;-71
2022/10/26 12:48:42;;;;;;;11.88;3.05;;;22.40;99.90;;;;;;5049061;28;20026;-71
2022/10/26 12:51:18;;;;;;;7.45;2.50;;;21.70;99.90;;;;;;5040801;28;20054;-72
2022/10/26 12:54:08;;;;;;;7.05;2.20;;;20.80;99.90;;;;;;5036121;28;20040;-69
2022/10/26 12:56:52;;;;;;;4.57;2.28;;;20.50;99.90;;;;;;5034314;28;20033;-72
2022/10/26 12:59:26;;;;;;;7.90;2.10;;;20.40;99.90;;;;;;5035196;28;20025;-71
2022/10/26 13:02:14;;;;;;;7.55;2.13;;;20.90;99.90;;;;;;5036178;28;20096;-72
2022/10/26 13:04:45;;;;;;;4.70;2.22;;;22.00;99.90;;;;;;5035443;28;20119;-72